createdAt,value
2022-08-26T00:01:42.199Z,29.00
2022-08-26T00:04:12.270Z,29.00
2022-08-26T00:06:39.115Z,29.00
2022-08-26T00:09:09.992Z,29.00
2022-08-26T00:11:37.187Z,29.00
2022-08-26T00:14:04.098Z,29.00
2022-08-26T00:16:31.961Z,29.00
2022-08-26T00:18:59.303Z,29.00
2022-08-26T00:21:26.574Z,29.00
2022-08-26T00:23:54.215Z,28.90
2022-08-26T00:26:21.031Z,28.80
2022-08-26T00:28:47.948Z,28.80
2022-08-26T00:31:14.668Z,28.90
2022-08-26T00:33:41.787Z,28.90
2022-08-26T00:36:09.458Z,28.90
2022-08-26T00:38:47.969Z,28.80
2022-08-26T00:41:15.139Z,28.80
2022-08-26T00:43:46.192Z,28.70
2022-08-26T00:46:19.620Z,28.70
2022-08-26T00:48:49.615Z,28.60
2022-08-26T00:51:21.746Z,28.60
2022-08-26T00:53:55.115Z,28.60
2022-08-26T00:56:37.532Z,28.50
2022-08-26T00:59:09.017Z,28.50
2022-08-26T01:01:38.109Z,28.60
2022-08-26T01:04:05.958Z,28.50
2022-08-26T01:06:32.708Z,28.60
2022-08-26T01:09:00.156Z,28.60
2022-08-26T01:11:27.675Z,28.60
2022-08-26T01:13:58.799Z,28.60
2022-08-26T01:16:25.825Z,28.60
2022-08-26T01:18:56.845Z,28.60
2022-08-26T01:21:36.251Z,28.50
2022-08-26T01:24:08.789Z,28.50
2022-08-26T01:26:42.837Z,28.40
2022-08-26T01:29:14.802Z,28.40
2022-08-26T01:31:48.443Z,28.40
2022-08-26T01:34:20.504Z,28.40
2022-08-26T01:36:51.524Z,28.40
2022-08-26T01:39:19.293Z,28.40
2022-08-26T01:41:47.425Z,28.30
2022-08-26T01:44:23.776Z,28.40
2022-08-26T01:46:52.280Z,28.40
2022-08-26T01:49:20.875Z,28.30
2022-08-26T01:51:51.409Z,28.30
2022-08-26T01:54:20.528Z,28.20
2022-08-26T01:56:52.239Z,28.20
2022-08-26T01:59:20.607Z,28.20
2022-08-26T02:01:48.723Z,28.10
2022-08-26T02:04:18.921Z,28.10
2022-08-26T02:06:48.658Z,28.10
2022-08-26T02:09:18.641Z,28.10
2022-08-26T02:11:47.728Z,28.20
2022-08-26T02:14:26.846Z,28.20
2022-08-26T02:16:56.048Z,28.20
2022-08-26T02:19:32.657Z,28.20
2022-08-26T02:22:03.485Z,28.10
2022-08-26T02:24:49.730Z,28.10
2022-08-26T02:27:24.446Z,28.10
2022-08-26T02:29:58.665Z,28.00
2022-08-26T02:32:25.776Z,28.00
2022-08-26T02:34:53.930Z,28.00
2022-08-26T02:37:20.784Z,28.00
2022-08-26T02:39:49.907Z,27.90
2022-08-26T02:42:16.707Z,28.00
2022-08-26T02:44:43.800Z,28.00
2022-08-26T02:47:14.711Z,28.00
2022-08-26T02:49:47.209Z,28.00
2022-08-26T02:52:14.592Z,28.00
2022-08-26T02:54:41.633Z,28.00
2022-08-26T02:57:08.864Z,28.00
2022-08-26T02:59:36.128Z,28.00
2022-08-26T03:02:03.809Z,27.90
2022-08-26T03:04:33.312Z,27.90
2022-08-26T03:07:00.419Z,27.80
2022-08-26T03:09:27.535Z,27.80
2022-08-26T03:11:55.464Z,27.80
2022-08-26T03:14:23.974Z,27.80
2022-08-26T03:16:52.567Z,27.70
2022-08-26T03:19:19.611Z,27.80
2022-08-26T03:21:47.217Z,27.70
2022-08-26T03:24:15.444Z,27.80
2022-08-26T03:26:52.614Z,27.80
2022-08-26T03:29:39.065Z,27.80
2022-08-26T03:32:06.170Z,27.80
2022-08-26T03:34:33.536Z,27.70
2022-08-26T03:37:00.584Z,27.70
2022-08-26T03:39:27.608Z,27.70
2022-08-26T03:41:58.943Z,27.70
2022-08-26T03:44:26.460Z,27.70
2022-08-26T03:46:54.608Z,27.70
2022-08-26T03:49:22.068Z,27.70
2022-08-26T03:51:49.145Z,27.70
2022-08-26T03:54:17.334Z,27.70
2022-08-26T03:56:44.206Z,27.60
2022-08-26T03:59:13.431Z,27.60
2022-08-26T04:01:40.410Z,27.60
2022-08-26T04:04:07.553Z,27.60
2022-08-26T04:06:37.852Z,27.60
2022-08-26T04:09:08.524Z,27.60
2022-08-26T04:11:39.868Z,27.70
2022-08-26T04:14:10.765Z,27.70
2022-08-26T04:16:38.555Z,27.60
2022-08-26T04:19:06.605Z,27.70
2022-08-26T04:21:34.502Z,27.70
2022-08-26T04:24:03.548Z,27.50
2022-08-26T04:26:39.501Z,27.60
2022-08-26T04:29:13.916Z,27.60
2022-08-26T04:31:41.354Z,27.60
2022-08-26T04:34:11.010Z,27.60
2022-08-26T04:36:38.560Z,27.70
2022-08-26T04:39:05.598Z,27.70
2022-08-26T04:41:32.929Z,27.70
2022-08-26T04:43:59.715Z,27.70
2022-08-26T04:46:26.505Z,27.70
2022-08-26T04:48:55.097Z,27.80
2022-08-26T04:51:27.397Z,27.80
2022-08-26T04:53:59.511Z,27.80
2022-08-26T04:56:28.660Z,27.70
2022-08-26T04:58:55.499Z,27.70
2022-08-26T05:01:22.460Z,27.60
2022-08-26T05:03:51.678Z,27.60
2022-08-26T05:06:19.978Z,27.50
2022-08-26T05:08:47.320Z,27.40
2022-08-26T05:11:14.695Z,27.40
2022-08-26T05:13:41.929Z,27.40
2022-08-26T05:16:12.844Z,27.40
2022-08-26T05:18:43.477Z,27.40
2022-08-26T05:21:23.631Z,27.40
2022-08-26T05:23:54.977Z,27.30
2022-08-26T05:26:27.283Z,27.30
2022-08-26T05:28:55.287Z,27.30
2022-08-26T05:31:32.035Z,27.30
2022-08-26T05:34:00.147Z,27.30
2022-08-26T05:36:33.472Z,27.30
2022-08-26T05:39:01.210Z,27.40
2022-08-26T05:41:34.398Z,27.40
2022-08-26T05:44:06.062Z,27.40
2022-08-26T05:46:33.864Z,27.40
2022-08-26T05:49:01.725Z,27.50
2022-08-26T05:51:30.357Z,27.30
2022-08-26T05:53:58.316Z,27.30
2022-08-26T05:56:26.157Z,27.40
2022-08-26T05:58:53.918Z,27.30
2022-08-26T06:01:25.614Z,27.30
2022-08-26T06:03:57.585Z,27.30
2022-08-26T06:06:33.590Z,27.40
2022-08-26T06:09:03.903Z,27.40
2022-08-26T06:11:32.477Z,27.40
2022-08-26T06:14:03.801Z,27.40
2022-08-26T06:16:33.473Z,27.40
2022-08-26T06:19:02.738Z,27.50
2022-08-26T06:21:35.217Z,27.50
2022-08-26T06:24:27.077Z,27.60
2022-08-26T06:26:56.627Z,27.60
2022-08-26T06:29:26.099Z,27.60
2022-08-26T06:31:54.925Z,27.60
2022-08-26T06:34:23.607Z,27.60
2022-08-26T06:37:02.554Z,27.60
2022-08-26T06:39:31.305Z,27.60
2022-08-26T06:41:59.397Z,27.70
2022-08-26T06:44:27.176Z,27.60
2022-08-26T06:46:54.328Z,27.60
2022-08-26T06:49:26.599Z,27.60
2022-08-26T06:51:58.705Z,27.70
2022-08-26T06:54:26.685Z,27.70
2022-08-26T06:56:53.822Z,27.70
2022-08-26T06:59:21.798Z,27.80
2022-08-26T07:01:49.641Z,27.80
2022-08-26T07:04:22.126Z,27.90
2022-08-26T07:06:52.838Z,27.90
2022-08-26T07:09:22.905Z,28.00
2022-08-26T07:11:51.307Z,28.00
2022-08-26T07:14:19.293Z,28.10
2022-08-26T07:16:51.419Z,28.10
2022-08-26T07:19:30.386Z,28.20
2022-08-26T07:22:02.427Z,28.20
2022-08-26T07:24:32.206Z,28.20
2022-08-26T07:27:05.386Z,28.20
2022-08-26T07:29:33.286Z,28.30
2022-08-26T07:32:00.120Z,28.30
2022-08-26T07:34:27.261Z,28.40
2022-08-26T07:36:55.168Z,28.30
2022-08-26T07:39:22.673Z,28.30
2022-08-26T07:41:49.726Z,28.40
2022-08-26T07:44:16.848Z,28.30
2022-08-26T07:46:44.133Z,28.30
2022-08-26T07:49:14.731Z,28.30
2022-08-26T07:51:41.612Z,28.20
2022-08-26T07:54:09.076Z,28.30
2022-08-26T07:56:35.821Z,28.30
2022-08-26T07:59:03.831Z,28.30
2022-08-26T08:01:41.112Z,28.30
2022-08-26T08:04:15.485Z,28.40
2022-08-26T08:06:43.892Z,28.40
2022-08-26T08:09:12.562Z,28.40
2022-08-26T08:11:39.728Z,28.40
2022-08-26T08:14:08.408Z,28.40
2022-08-26T08:16:37.220Z,28.30
2022-08-26T08:19:05.938Z,28.30
2022-08-26T08:21:32.830Z,28.30
2022-08-26T08:23:59.882Z,28.30
2022-08-26T08:26:27.351Z,28.30
2022-08-26T08:28:56.095Z,28.20
2022-08-26T08:31:55.879Z,28.30
2022-08-26T08:34:16.096Z,28.30
2022-08-26T08:36:46.244Z,28.40
2022-08-26T08:39:13.627Z,28.40
2022-08-26T08:42:12.073Z,28.40
2022-08-26T08:44:44.285Z,28.50
2022-08-26T08:47:29.033Z,28.50
2022-08-26T08:50:00.260Z,28.40
2022-08-26T08:52:35.072Z,28.10
2022-08-26T08:55:03.763Z,28.20
2022-08-26T08:58:04.670Z,28.20
2022-08-26T09:00:44.189Z,28.20
2022-08-26T09:03:37.917Z,28.30
2022-08-26T09:06:17.010Z,28.40
2022-08-26T09:08:47.364Z,28.50
2022-08-26T09:11:18.661Z,28.50
2022-08-26T09:13:51.285Z,28.50
2022-08-26T09:16:51.739Z,28.50
2022-08-26T09:19:27.357Z,28.50
2022-08-26T09:22:00.264Z,28.50
2022-08-26T09:24:30.746Z,28.50
2022-08-26T09:26:59.202Z,28.50
2022-08-26T09:29:32.324Z,28.50
2022-08-26T09:32:24.788Z,28.50
2022-08-26T09:35:23.391Z,28.40
2022-08-26T09:40:34.832Z,28.30
2022-08-26T09:43:22.295Z,28.30
2022-08-26T09:45:58.411Z,28.30
2022-08-26T09:48:27.863Z,28.30
2022-08-26T09:50:58.957Z,28.40
2022-08-26T09:53:49.578Z,28.40
2022-08-26T09:56:22.119Z,28.50
2022-08-26T09:58:50.383Z,28.50
2022-08-26T10:01:38.426Z,28.40
2022-08-26T10:04:10.378Z,28.50
2022-08-26T10:06:58.203Z,28.60
2022-08-26T10:09:25.835Z,28.60
2022-08-26T10:11:56.740Z,28.60
2022-08-26T10:14:33.498Z,28.60
2022-08-26T10:17:09.437Z,28.60
2022-08-26T10:19:55.721Z,28.50
2022-08-26T10:22:36.893Z,28.50
2022-08-26T10:25:08.024Z,28.50
2022-08-26T10:28:01.210Z,28.50
2022-08-26T10:30:34.829Z,28.50
2022-08-26T10:33:07.735Z,28.50
2022-08-26T10:35:40.471Z,28.50
2022-08-26T10:38:16.890Z,28.40
2022-08-26T10:41:00.593Z,28.30
2022-08-26T10:43:32.728Z,28.30
2022-08-26T10:46:04.508Z,28.30
2022-08-26T10:48:53.994Z,28.40
2022-08-26T10:51:26.991Z,28.30
2022-08-26T10:54:06.689Z,28.30
2022-08-26T10:56:39.400Z,28.30
2022-08-26T10:59:24.265Z,28.20
2022-08-26T11:02:06.368Z,28.30
2022-08-26T11:04:48.699Z,28.20
2022-08-26T11:07:43.879Z,28.20
2022-08-26T11:10:17.290Z,28.20
2022-08-26T11:12:45.440Z,28.20
2022-08-26T11:15:24.526Z,28.20
2022-08-26T11:17:55.391Z,28.30
2022-08-26T11:20:34.301Z,28.30
2022-08-26T11:23:13.788Z,28.40
2022-08-26T11:26:32.759Z,28.50
2022-08-26T11:29:03.150Z,28.50
2022-08-26T11:31:30.498Z,28.60
2022-08-26T11:34:04.666Z,28.60
2022-08-26T11:36:54.322Z,28.60
2022-08-26T11:39:24.812Z,28.70
2022-08-26T11:41:55.476Z,28.70
2022-08-26T11:44:27.913Z,28.70
2022-08-26T11:46:57.847Z,28.70
2022-08-26T11:49:26.090Z,28.90
2022-08-26T11:51:55.735Z,29.00
2022-08-26T11:54:32.725Z,29.10
2022-08-26T11:57:09.295Z,29.10
2022-08-26T11:59:40.095Z,29.10
2022-08-26T12:02:15.359Z,29.00
2022-08-26T12:04:46.329Z,29.00
2022-08-26T12:07:13.526Z,28.90
2022-08-26T12:09:54.381Z,28.80
2022-08-26T12:12:26.882Z,28.80
2022-08-26T12:15:11.552Z,28.70
2022-08-26T12:17:39.891Z,28.70
2022-08-26T12:20:45.766Z,28.80
2022-08-26T12:23:36.382Z,28.90
2022-08-26T12:26:31.652Z,28.90
2022-08-26T12:28:59.956Z,29.00
2022-08-26T12:31:42.724Z,29.10
2022-08-26T12:34:17.855Z,29.20
2022-08-26T12:36:48.823Z,29.30
2022-08-26T12:39:35.471Z,29.30
2022-08-26T12:42:07.861Z,29.40
2022-08-26T12:44:53.793Z,29.30
2022-08-26T12:47:28.781Z,29.30
2022-08-26T12:50:11.649Z,29.40
2022-08-26T12:53:03.729Z,29.40
2022-08-26T12:55:35.687Z,29.50
2022-08-26T12:58:29.880Z,29.50
2022-08-26T13:01:04.648Z,29.60
2022-08-26T13:03:34.700Z,29.60
2022-08-26T13:06:22.664Z,29.70
2022-08-26T13:08:52.578Z,29.80
2022-08-26T13:11:21.229Z,29.80
2022-08-26T13:13:51.849Z,29.90
2022-08-26T13:16:22.248Z,29.90
2022-08-26T13:18:53.194Z,29.90
2022-08-26T13:21:25.919Z,29.90
2022-08-26T13:23:53.254Z,29.90
2022-08-26T13:26:21.549Z,30.00
2022-08-26T13:29:01.630Z,30.00
2022-08-26T13:31:30.965Z,30.00
2022-08-26T13:33:57.805Z,30.10
2022-08-26T13:36:24.946Z,30.10
2022-08-26T13:38:51.826Z,30.10
2022-08-26T13:41:19.215Z,30.10
2022-08-26T13:43:56.152Z,30.20
2022-08-26T13:46:23.059Z,30.20
2022-08-26T13:48:49.872Z,30.20
2022-08-26T13:51:18.545Z,30.30
2022-08-26T13:53:45.286Z,30.30
2022-08-26T13:56:12.110Z,30.30
2022-08-26T13:58:38.917Z,30.30
2022-08-26T14:01:05.873Z,30.30
2022-08-26T14:03:32.840Z,30.30
2022-08-26T14:05:59.885Z,30.30
2022-08-26T14:08:26.635Z,30.30
2022-08-26T14:10:53.677Z,30.30
2022-08-26T14:13:20.633Z,30.20
2022-08-26T14:15:47.648Z,30.20
2022-08-26T14:18:17.771Z,30.30
2022-08-26T14:20:50.134Z,30.30
2022-08-26T14:23:19.089Z,30.40
2022-08-26T14:25:46.048Z,30.50
2022-08-26T14:28:12.928Z,30.50
2022-08-26T14:30:42.030Z,30.60
2022-08-26T14:33:12.852Z,30.70
2022-08-26T14:35:39.717Z,30.70
2022-08-26T14:38:07.208Z,30.70
2022-08-26T14:40:37.541Z,30.80
2022-08-26T14:43:05.992Z,30.90
2022-08-26T14:45:36.522Z,30.90
2022-08-26T14:48:03.485Z,31.00
2022-08-26T14:50:30.751Z,31.00
2022-08-26T14:53:16.344Z,31.00
2022-08-26T14:55:46.014Z,31.00
2022-08-26T14:58:13.002Z,31.00
2022-08-26T15:00:39.784Z,30.90
2022-08-26T15:03:06.801Z,30.90
2022-08-26T15:05:34.141Z,30.80
2022-08-26T15:08:02.399Z,30.70
2022-08-26T15:10:29.230Z,30.60
2022-08-26T15:12:56.023Z,30.60
2022-08-26T15:15:24.224Z,30.60
2022-08-26T15:17:51.396Z,30.60
2022-08-26T15:20:18.403Z,30.60
2022-08-26T15:22:45.301Z,30.60
2022-08-26T15:25:12.393Z,30.60
2022-08-26T15:27:39.435Z,30.60
2022-08-26T15:30:09.674Z,30.70
2022-08-26T15:32:37.001Z,30.80
2022-08-26T15:35:08.834Z,31.00
2022-08-26T15:37:36.232Z,31.30
2022-08-26T15:40:04.894Z,32.00
2022-08-26T15:42:34.175Z,32.40
2022-08-26T15:45:00.939Z,32.40
2022-08-26T15:47:27.769Z,32.30
2022-08-26T15:49:55.358Z,32.10
2022-08-26T15:52:22.277Z,31.90
2022-08-26T15:54:49.059Z,31.70
2022-08-26T15:57:19.646Z,31.40
2022-08-26T15:59:46.681Z,31.20
2022-08-26T16:02:13.543Z,31.00
2022-08-26T16:04:40.422Z,30.90
2022-08-26T16:07:07.347Z,30.80
2022-08-26T16:09:34.141Z,30.70
2022-08-26T16:12:01.025Z,30.70
2022-08-26T16:14:27.853Z,30.60
2022-08-26T16:16:54.833Z,30.70
2022-08-26T16:19:22.212Z,30.70
2022-08-26T16:21:51.385Z,30.60
2022-08-26T16:24:24.813Z,30.60
2022-08-26T16:26:54.546Z,30.50
2022-08-26T16:29:21.354Z,30.50
2022-08-26T16:31:50.499Z,30.50
2022-08-26T16:34:17.435Z,30.60
2022-08-26T16:36:44.188Z,30.60
2022-08-26T16:39:10.975Z,30.70
2022-08-26T16:41:37.908Z,30.80
2022-08-26T16:44:06.355Z,30.90
2022-08-26T16:46:34.117Z,30.90
2022-08-26T16:49:04.055Z,30.80
2022-08-26T16:51:32.441Z,30.80
2022-08-26T16:54:05.510Z,30.90
2022-08-26T16:56:34.600Z,30.90
2022-08-26T16:59:06.812Z,30.90
2022-08-26T17:01:33.838Z,30.90
2022-08-26T17:04:00.742Z,30.80
2022-08-26T17:06:27.587Z,30.80
2022-08-26T17:08:54.361Z,30.80
2022-08-26T17:11:21.110Z,30.70
2022-08-26T17:13:47.925Z,30.70
2022-08-26T17:16:15.148Z,30.70
2022-08-26T17:18:42.265Z,30.70
2022-08-26T17:21:11.273Z,30.60
2022-08-26T17:23:38.966Z,30.60
2022-08-26T17:26:05.869Z,30.60
2022-08-26T17:28:33.035Z,30.60
2022-08-26T17:31:03.227Z,30.60
2022-08-26T17:33:30.359Z,30.50
2022-08-26T17:35:58.808Z,30.50
2022-08-26T17:38:25.953Z,30.40
2022-08-26T17:40:52.901Z,30.30
2022-08-26T17:43:19.737Z,30.30
2022-08-26T17:45:46.798Z,30.20
2022-08-26T17:48:14.016Z,30.20
2022-08-26T17:50:42.931Z,30.10
2022-08-26T17:53:19.223Z,30.10
2022-08-26T17:55:49.851Z,30.00
2022-08-26T17:58:20.268Z,29.90
2022-08-26T18:00:52.135Z,29.80
2022-08-26T18:03:19.306Z,29.80
2022-08-26T18:05:52.087Z,29.70
2022-08-26T18:08:19.572Z,29.70
2022-08-26T18:10:47.111Z,29.60
2022-08-26T18:13:14.897Z,29.60
2022-08-26T18:15:43.791Z,29.60
2022-08-26T18:18:10.698Z,29.50
2022-08-26T18:20:40.317Z,29.50
2022-08-26T18:23:07.610Z,29.40
2022-08-26T18:25:34.587Z,29.30
2022-08-26T18:28:01.458Z,29.30
2022-08-26T18:30:28.269Z,29.30
2022-08-26T18:32:55.086Z,29.20
2022-08-26T18:35:21.922Z,29.10
2022-08-26T18:37:48.748Z,29.10
2022-08-26T18:40:16.361Z,29.00
2022-08-26T18:42:44.069Z,29.00
2022-08-26T18:45:16.376Z,28.90
2022-08-26T18:47:43.641Z,28.90
2022-08-26T18:50:11.161Z,28.80
2022-08-26T18:52:38.084Z,28.80
2022-08-26T18:55:05.401Z,28.80
2022-08-26T18:57:32.247Z,28.70
2022-08-26T18:59:59.045Z,28.70
2022-08-26T19:02:25.988Z,28.60
2022-08-26T19:04:52.951Z,28.70
2022-08-26T19:07:20.326Z,28.60
2022-08-26T19:09:47.313Z,28.60
2022-08-26T19:12:20.704Z,28.60
2022-08-26T19:14:47.422Z,28.50
2022-08-26T19:17:14.360Z,28.50
2022-08-26T19:19:41.094Z,28.50
2022-08-26T19:22:07.897Z,28.50
2022-08-26T19:24:34.700Z,28.50
2022-08-26T19:27:02.499Z,28.40
2022-08-26T19:29:34.650Z,28.40
2022-08-26T19:32:02.458Z,28.30
2022-08-26T19:34:29.744Z,28.30
2022-08-26T19:36:58.336Z,28.20
2022-08-26T19:39:26.516Z,28.20
2022-08-26T19:41:53.585Z,28.10
2022-08-26T19:44:41.456Z,28.10
2022-08-26T19:47:09.743Z,28.10
2022-08-26T19:49:36.771Z,28.00
2022-08-26T19:52:04.238Z,28.00
2022-08-26T19:54:31.121Z,28.00
2022-08-26T19:56:57.962Z,28.00
2022-08-26T19:59:24.735Z,28.00
2022-08-26T20:02:00.641Z,27.90
2022-08-26T20:04:28.081Z,27.90
2022-08-26T20:06:55.720Z,27.80
2022-08-26T20:09:25.713Z,27.70
2022-08-26T20:11:52.491Z,27.70
2022-08-26T20:14:23.550Z,27.70
2022-08-26T20:16:50.360Z,27.60
2022-08-26T20:19:37.668Z,27.50
2022-08-26T20:22:05.178Z,27.50
2022-08-26T20:24:34.578Z,27.50
2022-08-26T20:27:06.848Z,27.50
2022-08-26T20:29:35.003Z,27.40
2022-08-26T20:32:02.611Z,27.40
2022-08-26T20:34:30.136Z,27.40
2022-08-26T20:36:56.956Z,27.40
2022-08-26T20:39:23.928Z,27.40
2022-08-26T20:41:50.855Z,27.40
2022-08-26T20:44:18.035Z,27.40
2022-08-26T20:46:45.352Z,27.40
2022-08-26T20:49:13.310Z,27.50
2022-08-26T20:51:42.325Z,27.40
2022-08-26T20:54:10.662Z,27.40
2022-08-26T20:56:37.939Z,27.40
2022-08-26T20:59:06.950Z,27.50
2022-08-26T21:01:36.551Z,27.40
2022-08-26T21:04:09.445Z,27.40
2022-08-26T21:06:38.267Z,27.40
2022-08-26T21:09:07.732Z,27.40
2022-08-26T21:11:36.603Z,27.40
2022-08-26T21:14:07.155Z,27.40
2022-08-26T21:16:43.972Z,27.40
2022-08-26T21:19:13.278Z,27.30
2022-08-26T21:21:40.903Z,27.30
2022-08-26T21:24:07.880Z,27.30
2022-08-26T21:26:34.748Z,27.30
2022-08-26T21:29:02.388Z,27.20
2022-08-26T21:31:31.689Z,27.20
2022-08-26T21:33:59.540Z,27.20
2022-08-26T21:36:26.645Z,27.20
2022-08-26T21:38:56.746Z,27.10
2022-08-26T21:41:24.908Z,27.20
2022-08-26T21:43:56.368Z,27.20
2022-08-26T21:46:24.605Z,27.10
2022-08-26T21:48:58.413Z,27.20
2022-08-26T21:51:27.691Z,27.20
2022-08-26T21:53:58.802Z,27.20
2022-08-26T21:56:27.991Z,27.20
2022-08-26T21:58:56.251Z,27.20
2022-08-26T22:01:26.037Z,27.20
2022-08-26T22:03:53.573Z,27.10
2022-08-26T22:06:25.649Z,27.20
2022-08-26T22:08:53.461Z,27.20
2022-08-26T22:11:20.384Z,27.20
2022-08-26T22:13:48.547Z,27.10
2022-08-26T22:16:15.437Z,27.20
2022-08-26T22:18:45.787Z,27.10
2022-08-26T22:21:16.552Z,27.10
2022-08-26T22:23:44.349Z,27.20
2022-08-26T22:26:13.545Z,27.10
2022-08-26T22:28:40.419Z,27.10
2022-08-26T22:31:12.388Z,27.10
2022-08-26T22:33:42.145Z,27.20
2022-08-26T22:36:19.879Z,27.10
2022-08-26T22:38:47.629Z,27.10
2022-08-26T22:41:15.521Z,27.10
2022-08-26T22:43:42.360Z,27.10
2022-08-26T22:46:10.675Z,27.00
2022-08-26T22:48:38.340Z,27.00
2022-08-26T22:51:05.332Z,26.90
2022-08-26T22:53:32.725Z,26.90
2022-08-26T22:56:03.335Z,26.80
2022-08-26T22:58:30.863Z,26.80
2022-08-26T23:00:59.368Z,26.70
2022-08-26T23:03:27.066Z,26.70
2022-08-26T23:05:55.564Z,26.70
2022-08-26T23:08:23.372Z,26.70
2022-08-26T23:10:51.181Z,26.70
2022-08-26T23:13:18.366Z,26.70
2022-08-26T23:15:45.646Z,26.60
2022-08-26T23:18:14.275Z,26.60
2022-08-26T23:20:41.681Z,26.60
2022-08-26T23:23:08.706Z,26.60
2022-08-26T23:25:35.540Z,26.60
2022-08-26T23:28:02.884Z,26.50
2022-08-26T23:30:32.214Z,26.50
2022-08-26T23:32:59.514Z,26.50
2022-08-26T23:35:26.918Z,26.50
2022-08-26T23:37:53.965Z,26.40
2022-08-26T23:40:28.142Z,26.40
2022-08-26T23:42:56.871Z,26.40
2022-08-26T23:45:24.808Z,26.40
2022-08-26T23:47:52.579Z,26.30
2022-08-26T23:50:21.717Z,26.30
2022-08-26T23:53:08.570Z,26.30
2022-08-26T23:55:39.332Z,26.30
2022-08-26T23:58:06.358Z,26.30
